createdAt,value
2023-02-03T00:00:14.510Z,60.70
2023-02-03T00:02:44.809Z,60.60
2023-02-03T00:05:13.159Z,60.80
2023-02-03T00:07:44.377Z,60.60
2023-02-03T00:10:12.947Z,60.60
2023-02-03T00:12:41.506Z,60.70
2023-02-03T00:15:11.179Z,60.80
2023-02-03T00:17:39.515Z,60.70
2023-02-03T00:20:11.037Z,60.60
2023-02-03T00:22:39.538Z,60.60
2023-02-03T00:25:08.950Z,60.60
2023-02-03T00:27:37.456Z,60.60
2023-02-03T00:30:07.063Z,60.60
2023-02-03T00:32:35.670Z,60.60
2023-02-03T00:35:05.889Z,60.40
2023-02-03T00:37:36.200Z,60.50
2023-02-03T00:40:05.646Z,60.20
2023-02-03T00:42:36.853Z,60.40
2023-02-03T00:45:07.738Z,60.90
2023-02-03T00:47:36.837Z,60.50
2023-02-03T00:50:07.096Z,60.20
2023-02-03T00:52:38.402Z,61.20
2023-02-03T00:55:09.092Z,60.40
2023-02-03T00:57:38.432Z,60.50
2023-02-03T01:00:09.907Z,60.20
2023-02-03T01:02:40.358Z,60.50
2023-02-03T01:05:09.914Z,60.20
2023-02-03T01:07:39.832Z,60.50
2023-02-03T01:10:10.004Z,60.50
2023-02-03T01:12:38.357Z,60.50
2023-02-03T01:15:07.849Z,60.90
2023-02-03T01:17:36.235Z,60.50
2023-02-03T01:20:05.921Z,60.40
2023-02-03T01:22:36.294Z,60.50
2023-02-03T01:25:06.935Z,60.50
2023-02-03T01:27:35.590Z,60.50
2023-02-03T01:30:04.210Z,60.50
2023-02-03T01:32:32.611Z,61.50
2023-02-03T01:35:00.922Z,60.50
2023-02-03T01:37:29.264Z,60.70
2023-02-03T01:39:57.840Z,60.70
2023-02-03T01:42:27.475Z,60.70
2023-02-03T01:44:55.916Z,61.00
2023-02-03T01:47:30.445Z,60.90
2023-02-03T01:50:08.385Z,61.00
2023-02-03T01:52:38.163Z,61.70
2023-02-03T01:55:11.580Z,61.10
2023-02-03T01:57:48.373Z,61.00
2023-02-03T02:00:17.573Z,61.20
2023-02-03T02:02:49.178Z,61.10
2023-02-03T02:05:25.123Z,61.20
2023-02-03T02:07:53.942Z,61.40
2023-02-03T02:10:22.536Z,61.50
2023-02-03T02:12:53.059Z,61.60
2023-02-03T02:15:25.587Z,61.80
2023-02-03T02:18:07.842Z,62.20
2023-02-03T02:21:25.634Z,62.40
2023-02-03T02:24:28.019Z,62.50
2023-02-03T02:27:04.461Z,62.50
2023-02-03T02:30:44.546Z,62.70
2023-02-03T02:33:28.833Z,63.00
2023-02-03T02:36:08.058Z,63.20
2023-02-03T02:38:51.699Z,63.30
2023-02-03T02:41:26.522Z,63.50
2023-02-03T02:44:05.615Z,63.70
2023-02-03T02:46:42.882Z,64.00
2023-02-03T02:49:18.768Z,64.00
2023-02-03T02:51:58.886Z,64.50
2023-02-03T02:54:30.257Z,63.80
2023-02-03T02:57:03.248Z,64.50
2023-02-03T02:59:36.859Z,64.20
2023-02-03T03:02:06.956Z,63.90
2023-02-03T03:04:37.312Z,64.00
2023-02-03T03:07:16.794Z,64.60
2023-02-03T03:09:58.369Z,64.00
2023-02-03T03:12:33.567Z,63.90
2023-02-03T03:15:08.632Z,63.70
2023-02-03T03:17:44.085Z,63.70
2023-02-03T03:20:25.338Z,63.60
2023-02-03T03:23:00.221Z,63.50
2023-02-03T03:25:35.967Z,63.60
2023-02-03T03:28:10.069Z,63.80
2023-02-03T03:30:40.081Z,63.70
2023-02-03T03:33:09.715Z,64.40
2023-02-03T03:35:47.148Z,63.60
2023-02-03T03:38:23.440Z,63.40
2023-02-03T03:41:02.685Z,63.30
2023-02-03T03:43:35.861Z,63.70
2023-02-03T03:46:13.639Z,63.70
2023-02-03T03:48:49.824Z,63.30
2023-02-03T03:51:24.251Z,63.30
2023-02-03T03:53:55.264Z,63.70
2023-02-03T03:56:43.079Z,63.30
2023-02-03T03:59:17.259Z,63.70
2023-02-03T04:01:47.229Z,63.80
2023-02-03T04:04:17.785Z,63.70
2023-02-03T04:06:48.815Z,63.50
2023-02-03T04:09:17.642Z,64.10
2023-02-03T04:12:06.024Z,63.70
2023-02-03T04:14:39.054Z,63.70
2023-02-03T04:17:07.660Z,63.70
2023-02-03T04:19:36.678Z,63.70
2023-02-03T04:22:07.402Z,63.90
2023-02-03T04:24:35.966Z,63.80
2023-02-03T04:27:05.433Z,64.10
2023-02-03T04:29:34.120Z,64.20
2023-02-03T04:32:02.571Z,64.30
2023-02-03T04:34:31.133Z,63.90
2023-02-03T04:37:00.013Z,64.30
2023-02-03T04:39:30.132Z,64.00
2023-02-03T04:41:58.827Z,64.10
2023-02-03T04:44:27.366Z,64.30
2023-02-03T04:46:56.133Z,64.90
2023-02-03T04:49:24.590Z,64.10
2023-02-03T04:51:53.385Z,64.00
2023-02-03T04:54:22.233Z,64.20
2023-02-03T04:56:53.135Z,64.00
2023-02-03T04:59:22.131Z,64.10
2023-02-03T05:01:51.373Z,64.20
2023-02-03T05:04:21.237Z,64.10
2023-02-03T05:06:50.412Z,64.40
2023-02-03T05:09:19.322Z,63.90
2023-02-03T05:11:48.239Z,64.00
2023-02-03T05:14:18.403Z,63.70
2023-02-03T05:16:47.037Z,63.80
2023-02-03T05:19:15.688Z,63.70
2023-02-03T05:21:44.398Z,64.60
2023-02-03T05:24:13.033Z,64.70
2023-02-03T05:26:41.619Z,64.40
2023-02-03T05:29:11.829Z,64.30
2023-02-03T05:31:41.902Z,64.20
2023-02-03T05:34:10.501Z,63.90
2023-02-03T05:36:38.968Z,63.90
2023-02-03T05:39:07.427Z,64.00
2023-02-03T05:41:53.479Z,64.00
2023-02-03T05:44:23.614Z,64.10
2023-02-03T05:46:56.198Z,64.10
2023-02-03T05:49:25.782Z,64.10
2023-02-03T05:51:56.683Z,64.10
2023-02-03T05:54:25.758Z,63.80
2023-02-03T05:56:54.861Z,64.00
2023-02-03T05:59:25.548Z,64.20
2023-02-03T06:01:56.073Z,63.50
2023-02-03T06:08:03.722Z,63.30
2023-02-03T06:10:32.534Z,63.50
2023-02-03T06:13:01.567Z,63.60
2023-02-03T06:15:30.505Z,63.70
2023-02-03T06:18:01.213Z,63.40
2023-02-03T06:20:30.748Z,63.30
2023-02-03T06:22:59.710Z,63.70
2023-02-03T06:25:28.860Z,63.30
2023-02-03T06:27:57.778Z,63.90
2023-02-03T06:30:27.360Z,63.60
2023-02-03T06:32:56.539Z,63.50
2023-02-03T06:35:26.608Z,63.90
2023-02-03T06:37:55.805Z,63.50
2023-02-03T06:40:24.567Z,64.00
2023-02-03T06:42:53.665Z,64.20
2023-02-03T06:45:22.161Z,63.80
2023-02-03T06:47:50.511Z,63.40
2023-02-03T06:50:19.276Z,63.30
2023-02-03T06:52:51.192Z,63.30
2023-02-03T06:55:19.725Z,63.50
2023-02-03T06:57:49.449Z,63.40
2023-02-03T07:00:20.293Z,63.30
2023-02-03T07:02:55.134Z,63.20
2023-02-03T07:05:24.600Z,63.30
2023-02-03T07:07:54.625Z,63.30
2023-02-03T07:10:23.154Z,63.20
2023-02-03T07:12:51.981Z,63.20
2023-02-03T07:15:20.670Z,63.30
2023-02-03T07:17:54.988Z,63.40
2023-02-03T07:20:25.535Z,63.30
2023-02-03T07:22:56.956Z,63.20
2023-02-03T07:25:26.627Z,63.20
2023-02-03T07:27:55.619Z,63.30
2023-02-03T07:30:24.310Z,63.20
2023-02-03T07:32:53.848Z,63.10
2023-02-03T07:35:22.600Z,63.30
2023-02-03T07:37:51.311Z,63.30
2023-02-03T07:40:21.704Z,63.20
2023-02-03T07:42:50.964Z,63.20
2023-02-03T07:45:22.534Z,63.20
2023-02-03T07:47:51.142Z,63.20
2023-02-03T07:50:20.215Z,63.00
2023-02-03T07:52:50.593Z,62.90
2023-02-03T07:55:23.778Z,63.00
2023-02-03T07:57:52.329Z,63.40
2023-02-03T08:00:22.289Z,63.00
2023-02-03T08:02:51.042Z,63.00
2023-02-03T08:05:20.349Z,62.90
2023-02-03T08:07:49.011Z,62.90
2023-02-03T08:10:18.141Z,63.00
2023-02-03T08:12:48.165Z,62.90
2023-02-03T08:15:17.357Z,62.90
2023-02-03T08:17:46.604Z,63.00
2023-02-03T08:20:14.941Z,62.90
2023-02-03T08:22:43.501Z,62.90
2023-02-03T08:25:12.760Z,62.90
2023-02-03T08:27:41.880Z,62.90
2023-02-03T08:30:14.971Z,63.80
2023-02-03T08:32:43.652Z,63.10
2023-02-03T08:35:12.692Z,63.00
2023-02-03T08:37:41.324Z,63.10
2023-02-03T08:40:11.688Z,63.10
2023-02-03T08:42:41.466Z,63.20
2023-02-03T08:45:12.530Z,63.30
2023-02-03T08:47:40.932Z,63.40
2023-02-03T08:50:11.087Z,63.30
2023-02-03T08:52:40.308Z,63.50
2023-02-03T08:55:09.553Z,63.50
2023-02-03T08:57:40.249Z,63.50
2023-02-03T09:00:13.734Z,63.50
2023-02-03T09:02:42.457Z,63.40
2023-02-03T09:05:12.736Z,63.40
2023-02-03T09:07:43.919Z,63.50
2023-02-03T09:10:16.292Z,63.50
2023-02-03T09:12:46.717Z,63.40
2023-02-03T09:15:17.243Z,63.30
2023-02-03T09:17:46.004Z,63.30
2023-02-03T09:20:15.222Z,63.30
2023-02-03T09:22:44.356Z,63.30
2023-02-03T09:25:14.039Z,63.20
2023-02-03T09:27:42.840Z,63.30
2023-02-03T09:30:17.467Z,63.30
2023-02-03T09:32:54.249Z,63.30
2023-02-03T09:35:29.443Z,63.30
2023-02-03T09:38:02.545Z,63.30
2023-02-03T09:40:44.820Z,63.40
2023-02-03T09:43:39.162Z,63.30
2023-02-03T09:46:13.551Z,63.30
2023-02-03T09:48:54.392Z,64.00
2023-02-03T09:51:28.291Z,63.30
2023-02-03T09:54:04.462Z,63.30
2023-02-03T09:56:37.220Z,63.30
2023-02-03T09:59:05.992Z,63.30
2023-02-03T10:01:45.495Z,63.30
2023-02-03T10:04:30.105Z,63.40
2023-02-03T10:07:12.125Z,63.50
2023-02-03T10:10:00.160Z,63.50
2023-02-03T10:13:02.166Z,63.40
2023-02-03T10:16:12.607Z,63.40
2023-02-03T10:18:48.084Z,63.20
2023-02-03T10:21:33.553Z,63.20
2023-02-03T10:24:04.057Z,63.30
2023-02-03T10:26:34.562Z,63.30
2023-02-03T10:29:10.155Z,63.30
2023-02-03T10:31:39.043Z,63.30
2023-02-03T10:34:13.213Z,63.30
2023-02-03T10:36:55.902Z,63.40
2023-02-03T10:39:33.395Z,63.40
2023-02-03T10:42:04.721Z,63.40
2023-02-03T10:44:40.462Z,63.60
2023-02-03T10:47:25.895Z,63.90
2023-02-03T10:49:56.711Z,63.70
2023-02-03T10:52:32.549Z,63.60
2023-02-03T10:55:06.853Z,63.90
2023-02-03T10:57:39.269Z,63.80
2023-02-03T11:00:23.695Z,63.90
2023-02-03T11:03:08.216Z,63.80
2023-02-03T11:05:36.581Z,64.00
2023-02-03T11:08:15.635Z,63.80
2023-02-03T11:10:44.648Z,63.90
2023-02-03T11:13:19.415Z,63.90
2023-02-03T11:15:57.345Z,64.00
2023-02-03T11:18:52.789Z,64.10
2023-02-03T11:21:24.544Z,64.10
2023-02-03T11:24:06.180Z,63.90
2023-02-03T11:26:38.366Z,64.10
2023-02-03T11:29:15.213Z,64.00
2023-02-03T11:31:50.160Z,64.10
2023-02-03T11:34:24.195Z,64.00
2023-02-03T11:36:52.695Z,64.10
2023-02-03T11:39:28.939Z,64.00
2023-02-03T11:41:57.689Z,64.00
2023-02-03T11:44:31.166Z,64.10
2023-02-03T11:47:04.629Z,64.10
2023-02-03T11:50:07.440Z,64.10
2023-02-03T11:53:05.509Z,64.10
2023-02-03T11:56:02.938Z,64.20
2023-02-03T11:59:08.956Z,64.50
2023-02-03T12:02:09.576Z,64.20
2023-02-03T12:05:01.323Z,64.30
2023-02-03T12:08:00.761Z,64.30
2023-02-03T12:10:41.055Z,64.50
2023-02-03T12:13:28.569Z,64.30
2023-02-03T12:16:16.499Z,64.40
2023-02-03T12:19:00.181Z,64.40
2023-02-03T12:21:45.486Z,64.40
2023-02-03T12:24:29.794Z,64.40
2023-02-03T12:27:14.229Z,64.40
2023-02-03T12:29:47.057Z,64.20
2023-02-03T12:32:24.468Z,64.30
2023-02-03T12:34:58.305Z,64.20
2023-02-03T12:37:30.539Z,65.00
2023-02-03T12:40:02.986Z,64.30
2023-02-03T12:42:38.214Z,64.30
2023-02-03T12:45:14.285Z,64.20
2023-02-03T12:47:48.575Z,64.30
2023-02-03T12:50:23.194Z,64.30
2023-02-03T12:52:58.451Z,64.40
2023-02-03T12:55:36.625Z,64.40
2023-02-03T12:58:11.064Z,64.30
2023-02-03T13:00:47.471Z,64.40
2023-02-03T13:03:21.649Z,64.50
2023-02-03T13:05:56.054Z,64.40
2023-02-03T13:08:31.017Z,64.40
2023-02-03T13:11:13.340Z,64.50
2023-02-03T13:13:48.458Z,65.00
2023-02-03T13:16:23.342Z,64.80
2023-02-03T13:18:55.831Z,64.80
2023-02-03T13:21:24.260Z,64.90
2023-02-03T13:23:53.008Z,65.10
2023-02-03T13:27:12.473Z,65.00
2023-02-03T13:30:00.012Z,65.00
2023-02-03T13:32:48.064Z,65.00
2023-02-03T13:35:41.956Z,65.00
2023-02-03T13:38:31.656Z,65.30
2023-02-03T13:41:08.051Z,65.40
2023-02-03T13:43:40.083Z,65.30
2023-02-03T13:46:21.749Z,65.20
2023-02-03T13:48:52.327Z,65.30
2023-02-03T13:51:25.121Z,65.40
2023-02-03T13:54:00.134Z,65.50
2023-02-03T13:56:29.625Z,65.70
2023-02-03T13:59:05.453Z,65.50
2023-02-03T14:01:38.888Z,65.70
2023-02-03T14:04:09.818Z,65.50
2023-02-03T14:07:03.986Z,65.50
2023-02-03T14:09:43.451Z,65.80
2023-02-03T14:12:37.741Z,65.50
2023-02-03T14:15:24.531Z,65.60
2023-02-03T14:18:22.070Z,65.60
2023-02-03T14:21:09.823Z,65.80
2023-02-03T14:23:59.894Z,65.90
2023-02-03T14:26:39.243Z,65.90
2023-02-03T14:29:09.013Z,65.70
2023-02-03T14:32:00.259Z,65.70
2023-02-03T14:34:38.336Z,65.70
2023-02-03T14:37:22.541Z,65.70
2023-02-03T14:40:23.652Z,65.60
2023-02-03T14:43:24.259Z,65.60
2023-02-03T14:46:29.749Z,65.50
2023-02-03T14:49:28.143Z,65.20
2023-02-03T14:52:12.941Z,65.00
2023-02-03T14:55:09.487Z,64.90
2023-02-03T14:57:43.834Z,64.80
2023-02-03T15:00:31.335Z,64.80
2023-02-03T15:03:25.458Z,64.70
2023-02-03T15:05:57.503Z,64.60
2023-02-03T15:08:45.814Z,64.40
2023-02-03T15:11:34.735Z,64.40
2023-02-03T15:14:21.976Z,64.40
2023-02-03T15:16:56.973Z,64.30
2023-02-03T15:19:29.574Z,64.20
2023-02-03T15:21:58.017Z,64.20
2023-02-03T15:24:26.421Z,64.10
2023-02-03T15:26:57.554Z,64.10
2023-02-03T15:29:31.796Z,64.10
2023-02-03T15:32:11.373Z,64.10
2023-02-03T15:34:43.771Z,63.90
2023-02-03T15:37:19.615Z,63.80
2023-02-03T15:40:01.856Z,63.80
2023-02-03T15:42:39.546Z,63.70
2023-02-03T15:45:18.533Z,63.50
2023-02-03T15:47:52.396Z,63.50
2023-02-03T15:50:32.010Z,63.40
2023-02-03T15:53:06.212Z,63.30
2023-02-03T15:55:38.523Z,63.20
2023-02-03T15:58:17.904Z,62.90
2023-02-03T16:00:51.599Z,62.90
2023-02-03T16:03:22.838Z,62.80
2023-02-03T16:05:52.438Z,62.80
2023-02-03T16:08:38.162Z,62.50
2023-02-03T16:11:26.836Z,62.50
2023-02-03T16:13:59.758Z,62.50
2023-02-03T16:16:32.700Z,62.50
2023-02-03T16:19:05.113Z,62.50
2023-02-03T16:21:37.050Z,62.50
2023-02-03T16:24:07.200Z,62.50
2023-02-03T16:26:38.491Z,62.50
2023-02-03T16:29:33.429Z,62.50
2023-02-03T16:32:19.744Z,62.00
2023-02-03T16:35:05.971Z,62.10
2023-02-03T16:38:03.471Z,62.00
2023-02-03T16:40:49.215Z,61.50
2023-02-03T16:43:36.298Z,61.40
2023-02-03T16:46:30.745Z,61.70
2023-02-03T16:49:16.883Z,61.70
2023-02-03T16:52:10.194Z,61.80
2023-02-03T16:54:38.496Z,61.70
2023-02-03T16:57:06.871Z,62.00
2023-02-03T16:59:35.508Z,61.60
2023-02-03T17:02:05.236Z,61.20
2023-02-03T17:04:34.861Z,61.30
2023-02-03T17:07:05.183Z,61.50
2023-02-03T17:09:35.172Z,61.60
2023-02-03T17:12:03.547Z,61.50
2023-02-03T17:14:31.932Z,61.50
2023-02-03T17:17:00.242Z,61.40
2023-02-03T17:19:29.877Z,61.20
2023-02-03T17:21:58.161Z,61.20
2023-02-03T17:24:26.533Z,61.30
2023-02-03T17:26:54.841Z,61.20
2023-02-03T17:29:23.760Z,61.20
2023-02-03T17:31:52.124Z,60.80
2023-02-03T17:34:20.445Z,61.10
2023-02-03T17:36:50.104Z,61.00
2023-02-03T17:55:39.340Z,60.80
2023-02-03T17:58:07.612Z,60.70
2023-02-03T18:00:36.229Z,60.90
2023-02-03T18:03:04.673Z,60.80
2023-02-03T18:05:33.011Z,61.00
2023-02-03T18:08:06.077Z,60.90
2023-02-03T18:10:41.975Z,61.00
2023-02-03T18:13:10.367Z,60.80
2023-02-03T18:15:39.493Z,60.90
2023-02-03T18:18:08.062Z,60.80
2023-02-03T18:20:36.408Z,60.80
2023-02-03T18:23:04.690Z,60.90
2023-02-03T18:25:36.057Z,60.90
2023-02-03T18:28:06.014Z,61.00
2023-02-03T18:30:34.530Z,60.90
2023-02-03T18:33:03.881Z,61.00
2023-02-03T18:35:34.299Z,60.80
2023-02-03T18:38:02.733Z,60.60
2023-02-03T18:40:31.396Z,60.80
2023-02-03T18:42:59.899Z,60.70
2023-02-03T18:45:29.983Z,60.40
2023-02-03T18:47:58.237Z,60.60
2023-02-03T18:50:26.696Z,60.50
2023-02-03T18:52:55.485Z,60.50
2023-02-03T18:55:24.091Z,60.60
2023-02-03T18:57:52.346Z,60.50
2023-02-03T19:00:21.392Z,60.50
2023-02-03T19:02:51.573Z,60.60
2023-02-03T19:05:20.230Z,60.40
2023-02-03T19:07:48.542Z,60.30
2023-02-03T19:10:17.562Z,60.30
2023-02-03T19:12:45.880Z,60.40
2023-02-03T19:15:14.383Z,60.40
2023-02-03T19:17:42.627Z,60.10
2023-02-03T19:20:14.045Z,60.30
2023-02-03T19:22:42.386Z,60.20
2023-02-03T19:25:10.991Z,60.30
2023-02-03T19:27:39.278Z,60.10
2023-02-03T19:30:08.652Z,60.10
2023-02-03T19:32:36.947Z,60.10
2023-02-03T19:35:05.738Z,59.90
2023-02-03T19:37:35.424Z,59.90
2023-02-03T19:40:03.884Z,59.80
2023-02-03T19:42:32.155Z,59.40
2023-02-03T19:45:00.544Z,59.60
2023-02-03T19:47:28.816Z,59.90
2023-02-03T19:49:57.750Z,59.60
2023-02-03T19:52:26.154Z,59.20
2023-02-03T19:54:56.894Z,59.50
2023-02-03T19:57:25.195Z,59.30
2023-02-03T19:59:53.594Z,59.50
2023-02-03T20:02:21.920Z,59.20
2023-02-03T20:04:51.095Z,58.90
2023-02-03T20:07:20.149Z,59.30
2023-02-03T20:09:48.759Z,59.30
2023-02-03T20:12:18.386Z,59.20
2023-02-03T20:14:47.186Z,59.30
2023-02-03T20:17:15.485Z,59.30
2023-02-03T20:19:43.761Z,59.20
2023-02-03T20:22:12.090Z,58.60
2023-02-03T20:24:40.328Z,58.80
2023-02-03T20:27:08.619Z,58.70
2023-02-03T20:29:38.440Z,58.80
2023-02-03T20:32:07.426Z,58.80
2023-02-03T20:34:35.748Z,58.90
2023-02-03T20:37:04.191Z,59.00
2023-02-03T20:39:32.573Z,59.10
2023-02-03T20:42:01.013Z,59.00
2023-02-03T20:44:29.645Z,59.00
2023-02-03T20:46:59.307Z,59.20
2023-02-03T20:49:27.670Z,59.70
2023-02-03T20:51:56.004Z,59.30
2023-02-03T20:54:24.255Z,59.40
2023-02-03T20:56:52.528Z,59.50
2023-02-03T20:59:21.287Z,59.70
2023-02-03T21:01:50.687Z,59.60
2023-02-03T21:04:38.221Z,59.80
2023-02-03T21:07:15.036Z,59.80
2023-02-03T21:09:43.395Z,59.90
2023-02-03T21:12:13.081Z,59.90
2023-02-03T21:14:45.136Z,60.00
2023-02-03T21:17:20.091Z,60.00
2023-02-03T21:19:50.185Z,60.30
2023-02-03T21:22:22.776Z,60.30
2023-02-03T21:24:53.923Z,60.50
2023-02-03T21:27:31.187Z,60.50
2023-02-03T21:30:01.308Z,60.60
2023-02-03T21:32:38.642Z,60.80
2023-02-03T21:35:24.166Z,60.90
2023-02-03T21:37:57.184Z,61.00
2023-02-03T21:40:28.717Z,60.90
2023-02-03T21:42:57.406Z,61.10
2023-02-03T21:45:43.845Z,61.00
2023-02-03T21:48:30.897Z,61.20
2023-02-03T21:51:04.645Z,61.30
2023-02-03T21:53:36.030Z,61.20
2023-02-03T21:56:19.502Z,61.30
2023-02-03T21:58:50.759Z,61.20
2023-02-03T22:01:20.505Z,61.40
2023-02-03T22:03:51.818Z,61.50
2023-02-03T22:06:27.805Z,61.60
2023-02-03T22:08:58.426Z,61.50
2023-02-03T22:11:29.723Z,61.60
2023-02-03T22:13:58.536Z,61.80
2023-02-03T22:16:29.019Z,61.60
2023-02-03T22:18:57.568Z,61.60
2023-02-03T22:21:27.476Z,61.60
2023-02-03T22:23:55.829Z,62.30
2023-02-03T22:26:24.271Z,61.60
2023-02-03T22:28:53.787Z,61.90
2023-02-03T22:31:22.319Z,61.80
2023-02-03T22:33:50.792Z,61.80
2023-02-03T22:36:19.104Z,61.80
2023-02-03T22:38:48.999Z,62.10
2023-02-03T22:41:17.331Z,61.90
2023-02-03T22:43:45.598Z,61.90
2023-02-03T22:46:13.912Z,61.90
2023-02-03T22:48:42.289Z,61.90
2023-02-03T22:51:10.576Z,62.00
2023-02-03T22:53:39.848Z,62.10
2023-02-03T22:56:09.691Z,62.20
2023-02-03T22:58:37.984Z,62.20
2023-02-03T23:01:06.642Z,62.10
2023-02-03T23:03:35.094Z,62.20
2023-02-03T23:06:03.398Z,62.20
2023-02-03T23:08:31.833Z,62.30
2023-02-03T23:11:00.182Z,62.30
2023-02-03T23:13:29.807Z,62.30
2023-02-03T23:15:58.144Z,62.30
2023-02-03T23:18:26.503Z,62.40
2023-02-03T23:20:54.821Z,62.30
2023-02-03T23:23:23.153Z,62.40
2023-02-03T23:25:51.496Z,62.40
2023-02-03T23:28:19.864Z,62.30
2023-02-03T23:30:49.698Z,62.30
2023-02-03T23:33:18.095Z,62.60
2023-02-03T23:35:45.413Z,62.40
2023-02-03T23:38:14.249Z,62.50
2023-02-03T23:40:42.821Z,62.40
2023-02-03T23:43:11.224Z,62.40
2023-02-03T23:45:39.652Z,62.40
2023-02-03T23:48:09.828Z,62.50
2023-02-03T23:50:38.478Z,62.50
2023-02-03T23:53:06.987Z,62.50
2023-02-03T23:55:36.450Z,62.60
2023-02-03T23:58:05.997Z,62.60
